EFKK/KOK METAR and TAF weather

Enter ICAO airport designator
Station Type Date Time Source
EFKK METAR 2021/09/23 17:50 UTC NOAA

EFKK 231750Z AUTO 12015G28KT CAVOK 09/03 Q0993


Station Type Date Time Source
EFKK Decoded METAR 2021/09/23 17:50 UTC NOAA

Kruunupyy, Finland (EFKK) 63-43N 023-09E
Sep 23, 2021 - 01:50 PM EDT / 2021.09.23 1750 UTC
Wind: from the ESE (120 degrees) at 17 MPH (15 KT) gusting to 32 MPH (28 KT):0
Visibility: greater than 7 mile(s):0
Temperature: 48 F (9 C)
Dew Point: 37 F (3 C)
Relative Humidity: 66%
Pressure (altimeter): 29.32 in. Hg (0993 hPa)
ob: EFKK 231750Z AUTO 12015G28KT CAVOK 09/03 Q0993
cycle: 18

Station Type Date Time Source
EFKK TAF 2019/04/22 21:42 UTC NOAA

TAF EFKK 222023Z 2221/2321 18006KT CAVOK

Example: see airport list